createdAt,value
2022-12-17T00:01:54.755Z,18.7
2022-12-17T00:03:52.197Z,20.1
2022-12-17T00:05:49.612Z,21.5
2022-12-17T00:07:47.140Z,18.7
2022-12-17T00:09:52.578Z,21.3
2022-12-17T00:11:50.092Z,20.3
2022-12-17T00:13:47.607Z,20.3
2022-12-17T00:15:45.271Z,21
2022-12-17T00:17:42.739Z,23
2022-12-17T00:19:40.196Z,21.2
2022-12-17T00:21:37.694Z,22.2
2022-12-17T00:23:43.081Z,23.1
2022-12-17T00:25:40.592Z,20.8
2022-12-17T00:27:39.596Z,19.4
2022-12-17T00:32:04.078Z,20.5
2022-12-17T00:34:01.583Z,21.1
2022-12-17T00:36:06.989Z,19.3
2022-12-17T00:38:04.462Z,20.9
2022-12-17T00:41:59.457Z,20.8
2022-12-17T00:43:56.972Z,21.9
2022-12-17T00:45:54.485Z,20.5
2022-12-17T00:47:51.949Z,21.6
2022-12-17T00:49:57.345Z,20.1
2022-12-17T00:51:54.881Z,20.7
2022-12-17T00:53:52.380Z,21.8
2022-12-17T00:55:49.855Z,19.3
2022-12-17T00:57:47.367Z,23.6
2022-12-17T00:59:44.852Z,21.1
2022-12-17T01:01:42.441Z,21.8
2022-12-17T01:03:47.750Z,19.8
2022-12-17T01:05:45.230Z,19.6
2022-12-17T01:07:42.722Z,22.3
2022-12-17T01:09:40.235Z,24.5
2022-12-17T01:11:37.720Z,24.4
2022-12-17T01:13:35.675Z,23.7
2022-12-17T01:15:32.718Z,22.4
2022-12-17T01:17:38.098Z,23.6
2022-12-17T01:21:33.098Z,21
2022-12-17T01:22:35.812Z,22
2022-12-17T01:24:33.310Z,24.7
2022-12-17T01:26:30.790Z,23.1
2022-12-17T01:28:28.278Z,22.2
2022-12-17T01:30:33.667Z,24.3
2022-12-17T01:32:31.153Z,20.6
2022-12-17T01:34:28.647Z,24.5
2022-12-17T01:36:26.248Z,22.8
2022-12-17T01:38:23.627Z,21.3
2022-12-17T01:40:21.124Z,22.7
2022-12-17T01:42:18.603Z,20.8
2022-12-17T01:46:21.508Z,24
2022-12-17T01:48:19.003Z,20.8
2022-12-17T01:54:11.483Z,20.1
2022-12-17T01:56:08.991Z,22
2022-12-17T01:58:14.418Z,24.1
2022-12-17T02:04:07.110Z,23.1
2022-12-17T02:06:04.614Z,21.7
2022-12-17T02:08:02.113Z,22.6
2022-12-17T02:09:59.618Z,21
2022-12-17T02:16:00.033Z,25.1
2022-12-17T02:17:02.716Z,21.3
2022-12-17T02:19:00.197Z,26.2
2022-12-17T02:20:57.682Z,23.7
2022-12-17T02:22:55.174Z,24.8
2022-12-17T02:25:00.617Z,22.8
2022-12-17T02:26:58.128Z,22.4
2022-12-17T02:28:55.644Z,23.4
2022-12-17T02:30:53.111Z,22.2
2022-12-17T02:32:50.628Z,22.5
2022-12-17T02:38:51.024Z,25.1
2022-12-17T02:40:48.511Z,22.8
2022-12-17T02:46:41.002Z,21.8
2022-12-17T02:48:38.493Z,21.1
2022-12-17T02:50:35.988Z,21.9
2022-12-17T02:52:41.380Z,24.6
2022-12-17T02:54:38.867Z,21.6
2022-12-17T02:56:36.393Z,26.7
2022-12-17T02:58:33.922Z,21.6
2022-12-17T03:00:31.345Z,22.3
2022-12-17T03:02:29.025Z,23.3
2022-12-17T03:06:31.737Z,23.4
2022-12-17T03:08:29.231Z,26.9
2022-12-17T03:11:29.394Z,23.8
2022-12-17T03:13:26.902Z,25.6
2022-12-17T03:15:24.374Z,23
2022-12-17T03:17:21.882Z,23.6
2022-12-17T03:19:27.360Z,25.1
2022-12-17T03:21:24.876Z,24.9
2022-12-17T03:23:22.372Z,21.8
2022-12-17T03:25:19.867Z,22.8
2022-12-17T03:27:17.350Z,22.5
2022-12-17T03:29:14.826Z,23.6
2022-12-17T03:31:12.363Z,25.3
2022-12-17T03:33:17.739Z,24.7
2022-12-17T03:35:15.240Z,22.4
2022-12-17T03:37:12.716Z,26
2022-12-17T03:39:11.209Z,24.5
2022-12-17T03:41:08.718Z,23.1
2022-12-17T03:43:06.196Z,22
2022-12-17T03:45:03.718Z,22.7
2022-12-17T03:47:09.073Z,22.3
2022-12-17T03:49:06.563Z,23.8
2022-12-17T03:51:04.019Z,22
2022-12-17T03:53:01.553Z,24.8
2022-12-17T03:54:59.016Z,24.3
2022-12-17T03:56:56.508Z,24
2022-12-17T03:58:53.992Z,23.8
2022-12-17T04:00:59.384Z,26.6
2022-12-17T04:02:57.146Z,22.3
2022-12-17T04:04:54.348Z,21.8
2022-12-17T04:07:17.271Z,23.4
2022-12-17T04:09:14.763Z,23.3
2022-12-17T04:11:12.251Z,22.6
2022-12-17T04:15:15.205Z,20.9
2022-12-17T04:17:12.685Z,24.3
2022-12-17T04:19:10.163Z,24.7
2022-12-17T04:21:07.671Z,20.5
2022-12-17T04:23:05.276Z,23.2
2022-12-17T04:25:02.761Z,25.7
2022-12-17T04:29:05.805Z,24.6
2022-12-17T04:31:03.382Z,25.2
2022-12-17T04:33:00.797Z,19.7
2022-12-17T04:34:58.262Z,24.9
2022-12-17T04:38:53.275Z,23.1
2022-12-17T04:40:58.629Z,25.4
2022-12-17T04:42:56.141Z,22.6
2022-12-17T04:44:53.661Z,25.7
2022-12-17T04:46:51.111Z,30
2022-12-17T04:48:48.620Z,27.2
2022-12-17T04:50:46.068Z,28.2
2022-12-17T04:54:49.029Z,30.8
2022-12-17T04:58:43.983Z,24.4
2022-12-17T04:59:46.681Z,29
2022-12-17T05:01:44.240Z,27.1
2022-12-17T05:03:41.875Z,25.2
2022-12-17T05:05:39.091Z,25.4
2022-12-17T05:07:44.692Z,22.9
2022-12-17T05:11:39.765Z,27.7
2022-12-17T05:15:34.740Z,21.4
2022-12-17T05:17:32.310Z,26.7
2022-12-17T05:21:35.319Z,27.4
2022-12-17T05:23:32.902Z,25
2022-12-17T05:25:30.281Z,23.4
2022-12-17T05:31:22.811Z,23.9
2022-12-17T05:33:20.190Z,26.1
2022-12-17T05:35:25.622Z,25.7
2022-12-17T05:37:23.113Z,26.3
2022-12-17T05:39:20.566Z,28.6
2022-12-17T05:41:18.042Z,27.1
2022-12-17T05:43:15.500Z,31.1
2022-12-17T05:45:12.980Z,25.1
2022-12-17T05:47:10.480Z,23.8
2022-12-17T05:49:15.831Z,23.9
2022-12-17T05:53:10.834Z,23.9
2022-12-17T05:54:13.601Z,25.9
2022-12-17T05:56:11.072Z,27.6
2022-12-17T05:58:08.549Z,24.6
2022-12-17T06:00:06.025Z,28.9
2022-12-17T06:02:11.383Z,26.2
2022-12-17T06:04:08.979Z,28.1
2022-12-17T06:06:06.345Z,29.6
2022-12-17T06:08:05.380Z,26.5
2022-12-17T06:10:02.795Z,23.5
2022-12-17T06:12:02.837Z,31.1
2022-12-17T06:13:57.816Z,28.5
2022-12-17T06:16:03.257Z,28.4
2022-12-17T06:18:00.670Z,28.8
2022-12-17T06:19:58.161Z,28.4
2022-12-17T06:23:53.193Z,26.2
2022-12-17T06:25:50.767Z,26
2022-12-17T06:27:48.309Z,25.5
2022-12-17T06:31:51.281Z,26.3
2022-12-17T06:33:48.689Z,28.3
2022-12-17T06:35:46.179Z,30.1
2022-12-17T06:37:43.650Z,26.1
2022-12-17T06:39:41.204Z,29.6
2022-12-17T06:41:38.670Z,27.7
2022-12-17T06:43:44.072Z,27
2022-12-17T06:45:41.515Z,26
2022-12-17T06:47:39.061Z,26.7
2022-12-17T06:50:39.325Z,27.2
2022-12-17T06:52:36.776Z,29.2
2022-12-17T06:54:34.252Z,30.5
2022-12-17T06:56:39.632Z,30.5
2022-12-17T06:58:37.077Z,25.5
2022-12-17T07:00:34.564Z,29.8
2022-12-17T07:02:32.077Z,29.2
2022-12-17T07:04:29.571Z,30.7
2022-12-17T07:06:27.028Z,28.2
2022-12-17T07:10:29.960Z,28.9
2022-12-17T07:12:27.435Z,29.8
2022-12-17T07:16:22.422Z,27.1
2022-12-17T07:18:19.843Z,29.4
2022-12-17T07:20:17.434Z,31.1
2022-12-17T07:22:14.864Z,29.4
2022-12-17T07:24:20.232Z,30.8
2022-12-17T07:26:17.705Z,32.7
2022-12-17T07:32:10.252Z,36.7
2022-12-17T07:34:07.646Z,29.6
2022-12-17T07:38:10.426Z,30
2022-12-17T07:40:07.897Z,32.2
2022-12-17T07:48:27.338Z,32
2022-12-17T07:52:30.275Z,32.6
2022-12-17T07:54:27.832Z,31.8
2022-12-17T07:56:25.279Z,28
2022-12-17T07:58:22.739Z,33.4
2022-12-17T08:00:20.244Z,28.5
2022-12-17T08:06:20.665Z,29.1
2022-12-17T08:08:18.122Z,30.1
2022-12-17T08:10:15.602Z,28.6
2022-12-17T08:12:13.077Z,29.1
2022-12-17T08:14:10.647Z,29.1
2022-12-17T08:16:08.143Z,29.6
2022-12-17T08:18:13.528Z,34.3
2022-12-17T08:24:05.898Z,31.6
2022-12-17T08:26:03.367Z,33.4
2022-12-17T08:28:02.349Z,29.4
2022-12-17T08:29:58.527Z,33.7
2022-12-17T08:32:03.873Z,32.9
2022-12-17T08:34:07.621Z,31.8
2022-12-17T08:35:58.793Z,31.1
2022-12-17T08:37:01.580Z,32.8
2022-12-17T08:38:59.189Z,29.9
2022-12-17T08:40:56.618Z,35.6
2022-12-17T08:42:54.099Z,31.6
2022-12-17T08:44:59.642Z,37.4
2022-12-17T08:46:57.126Z,28
2022-12-17T08:48:54.604Z,28.1
2022-12-17T08:50:52.062Z,30.4
2022-12-17T08:52:49.527Z,30.9
2022-12-17T08:54:46.981Z,31.6
2022-12-17T08:56:44.453Z,31.2
2022-12-17T09:00:47.404Z,29.4
2022-12-17T09:06:39.837Z,31.4
2022-12-17T09:08:37.301Z,29.5
2022-12-17T09:10:34.743Z,28.5
2022-12-17T09:12:40.208Z,32.8
2022-12-17T09:14:37.690Z,29.3
2022-12-17T09:16:35.320Z,35.1
2022-12-17T09:18:32.754Z,30.2
2022-12-17T09:20:30.383Z,30.8
2022-12-17T09:22:27.777Z,33.6
2022-12-17T09:24:25.247Z,29.4
2022-12-17T09:28:28.157Z,31.2
2022-12-17T09:30:25.658Z,31.3
2022-12-17T09:33:25.786Z,31.3
2022-12-17T09:37:20.942Z,46
2022-12-17T09:39:26.412Z,32.4
2022-12-17T09:41:23.861Z,31.9
2022-12-17T09:43:21.344Z,31.9
2022-12-17T09:45:18.839Z,34.7
2022-12-17T09:47:16.298Z,32.8
2022-12-17T09:49:13.777Z,32.4
2022-12-17T09:51:11.331Z,31.4
2022-12-17T09:53:16.708Z,34.2
2022-12-17T09:55:14.206Z,32
2022-12-17T09:57:11.675Z,31.8
2022-12-17T09:59:09.155Z,35.7
2022-12-17T10:01:06.659Z,28.9
2022-12-17T10:03:04.382Z,35.9
2022-12-17T10:05:01.674Z,33.9
2022-12-17T10:07:07.158Z,32.9
2022-12-17T10:09:04.683Z,35.1
2022-12-17T10:11:02.101Z,37.5
2022-12-17T10:12:59.585Z,39.8
2022-12-17T10:14:57.055Z,35.4
2022-12-17T10:16:54.564Z,30.7
2022-12-17T10:18:52.059Z,33.9
2022-12-17T10:20:57.518Z,36.2
2022-12-17T10:22:54.997Z,34.9
2022-12-17T10:24:52.453Z,39.5
2022-12-17T10:25:55.122Z,33.6
2022-12-17T10:27:52.612Z,48.3
2022-12-17T10:29:50.115Z,42.4
2022-12-17T10:31:47.566Z,35.4
2022-12-17T10:33:52.912Z,38.8
2022-12-17T10:35:50.407Z,41.7
2022-12-17T10:37:47.882Z,96.9
2022-12-17T10:41:42.836Z,34.7
2022-12-17T10:43:40.320Z,35.8
2022-12-17T10:45:37.803Z,38.7
2022-12-17T10:49:40.751Z,40.7
2022-12-17T10:51:38.233Z,38
2022-12-17T10:53:36.264Z,38.6
2022-12-17T10:55:33.232Z,44.3
2022-12-17T10:59:28.187Z,33.6
2022-12-17T11:01:33.614Z,38.9
2022-12-17T11:03:31.256Z,36.5
2022-12-17T11:05:28.629Z,38.7
2022-12-17T11:07:26.076Z,35.8
2022-12-17T11:09:23.581Z,39
2022-12-17T11:11:21.082Z,33.4
2022-12-17T11:13:18.663Z,37.3
2022-12-17T11:15:24.126Z,34.9
2022-12-17T11:17:21.606Z,39.6
2022-12-17T11:19:19.207Z,38.3
2022-12-17T11:21:46.232Z,34.6
2022-12-17T11:23:43.825Z,38.9
2022-12-17T11:25:41.304Z,35.5
2022-12-17T11:27:46.693Z,39.9
2022-12-17T11:33:39.691Z,37.3
2022-12-17T11:35:36.746Z,33.8
2022-12-17T11:43:34.599Z,37.1
2022-12-17T11:49:28.638Z,33.7
2022-12-17T11:51:26.109Z,33.8
2022-12-17T11:53:27.915Z,37.3
2022-12-17T11:55:28.962Z,37.2
2022-12-17T11:57:26.442Z,32.3
2022-12-17T11:59:23.968Z,32.9
2022-12-17T12:01:21.508Z,34
2022-12-17T12:03:19.140Z,28.9
2022-12-17T12:05:16.430Z,33
2022-12-17T12:07:13.935Z,36.3
2022-12-17T12:09:19.326Z,30.9
2022-12-17T12:11:16.815Z,34.7
2022-12-17T12:13:14.310Z,31.5
2022-12-17T12:14:16.981Z,31.7
2022-12-17T12:20:09.582Z,34
2022-12-17T12:24:12.441Z,29.4
2022-12-17T12:26:09.963Z,30.9
2022-12-17T12:28:07.453Z,31.5
2022-12-17T12:30:04.922Z,34.5
2022-12-17T12:32:02.503Z,31
2022-12-17T12:33:59.915Z,35
2022-12-17T12:36:05.427Z,36.6
2022-12-17T12:38:02.923Z,32.7
2022-12-17T12:40:00.402Z,29.9
2022-12-17T12:43:55.385Z,35.1
2022-12-17T12:45:52.968Z,33.3
2022-12-17T12:47:50.357Z,34.2
2022-12-17T12:49:55.740Z,28.6
2022-12-17T12:51:53.221Z,32.9
2022-12-17T12:59:43.291Z,32.1
2022-12-17T13:01:40.881Z,30.4
2022-12-17T13:03:46.285Z,36.6
2022-12-17T13:05:43.694Z,33.9
2022-12-17T13:07:41.147Z,35.7
2022-12-17T13:08:43.849Z,33.8
2022-12-17T13:10:41.360Z,30.4
2022-12-17T13:12:38.844Z,32.1
2022-12-17T13:16:41.900Z,32
2022-12-17T13:18:39.732Z,36.5
2022-12-17T13:20:36.810Z,31.8
2022-12-17T13:22:34.335Z,32.2
2022-12-17T13:24:31.817Z,33.7
2022-12-17T13:26:29.305Z,36.4
2022-12-17T13:28:26.806Z,33.7
2022-12-17T13:30:32.093Z,31.6
2022-12-17T13:32:29.591Z,30.7
2022-12-17T13:34:27.050Z,32.6
2022-12-17T13:36:24.560Z,34.1
2022-12-17T13:38:22.052Z,33.3
2022-12-17T13:40:19.529Z,34.5
2022-12-17T13:42:17.001Z,35.6
2022-12-17T13:44:22.364Z,36.4
2022-12-17T13:46:19.936Z,34.1
2022-12-17T13:48:17.351Z,33.8
2022-12-17T13:50:35.810Z,32.5
2022-12-17T13:52:12.355Z,37.7
2022-12-17T13:54:09.834Z,34.5
2022-12-17T13:58:12.693Z,33.8
2022-12-17T14:03:10.742Z,32.7
2022-12-17T14:07:05.402Z,29.8
2022-12-17T14:09:02.903Z,35.6
2022-12-17T14:11:08.258Z,35.7
2022-12-17T14:13:05.748Z,32.7
2022-12-17T14:15:03.253Z,30.2
2022-12-17T14:17:00.788Z,36
2022-12-17T14:18:58.253Z,34.9
2022-12-17T14:22:53.231Z,34.7
2022-12-17T14:26:56.087Z,35.6
2022-12-17T14:28:53.589Z,33.1
2022-12-17T14:31:24.886Z,34.9
2022-12-17T14:32:48.678Z,35.5
2022-12-17T14:34:46.123Z,32.9
2022-12-17T14:36:43.617Z,36.6
2022-12-17T14:38:49.023Z,57
2022-12-17T14:40:46.438Z,38.9
2022-12-17T14:42:44.075Z,35.5
2022-12-17T14:44:41.559Z,35.9
2022-12-17T14:46:39.014Z,34.3
2022-12-17T14:48:36.824Z,32.8
2022-12-17T14:50:33.965Z,29.6
2022-12-17T14:52:39.413Z,33.6
2022-12-17T14:54:36.876Z,38.8
2022-12-17T14:56:34.411Z,33.7
2022-12-17T14:58:55.470Z,34.8
2022-12-17T15:00:52.932Z,36.9
2022-12-17T15:02:50.645Z,33.5
2022-12-17T15:04:55.746Z,34.9
2022-12-17T15:06:53.216Z,33.1
2022-12-17T15:08:50.703Z,42
2022-12-17T15:10:48.182Z,37
2022-12-17T15:12:45.749Z,32.4
2022-12-17T15:14:43.217Z,35.1
2022-12-17T15:16:40.767Z,33.6
2022-12-17T15:20:43.533Z,38.3
2022-12-17T15:22:40.991Z,44.3
2022-12-17T15:24:38.467Z,32.7
2022-12-17T15:26:35.937Z,33.4
2022-12-17T15:28:33.561Z,35.7
2022-12-17T15:30:30.866Z,33.2
2022-12-17T15:32:36.334Z,34.4
2022-12-17T15:40:26.200Z,31.4
2022-12-17T15:42:23.690Z,33.5
2022-12-17T15:44:21.148Z,35.8
2022-12-17T15:46:26.763Z,39.5
2022-12-17T15:48:24.157Z,31.9
2022-12-17T15:50:21.637Z,33.5
2022-12-17T15:51:24.322Z,33.2
2022-12-17T15:53:21.784Z,33.6
2022-12-17T15:55:19.252Z,30.5
2022-12-17T15:59:22.063Z,33.9
2022-12-17T16:01:19.718Z,33.7
2022-12-17T16:03:17.030Z,32.3
2022-12-17T16:05:14.452Z,31.9
2022-12-17T16:07:12.033Z,34.4
2022-12-17T16:09:09.541Z,36.8
2022-12-17T16:11:06.970Z,39.4
2022-12-17T16:13:12.435Z,32.8
2022-12-17T16:15:09.969Z,36.8
2022-12-17T16:19:05.002Z,35.1
2022-12-17T16:21:02.556Z,33.6
2022-12-17T16:23:00.021Z,32.5
2022-12-17T16:24:57.569Z,30.4
2022-12-17T16:27:04.824Z,32.4
2022-12-17T16:29:00.392Z,35.7
2022-12-17T16:30:57.892Z,35.4
2022-12-17T16:32:55.421Z,34.4
2022-12-17T16:34:52.875Z,54.2
2022-12-17T16:36:50.311Z,43
2022-12-17T16:40:53.143Z,29.1
2022-12-17T16:42:50.595Z,36.9
2022-12-17T16:45:50.734Z,32.3
2022-12-17T16:47:48.325Z,32.4
2022-12-17T16:49:45.849Z,36.7
2022-12-17T16:51:43.289Z,35.7
2022-12-17T16:53:48.707Z,35.1
2022-12-17T16:55:46.190Z,34.5
2022-12-17T16:57:43.653Z,31.9
2022-12-17T16:59:41.118Z,33.8
2022-12-17T17:01:38.711Z,33.7
2022-12-17T17:03:36.049Z,34.1
2022-12-17T17:05:33.446Z,30.6
2022-12-17T17:07:38.883Z,33.5
2022-12-17T17:09:36.351Z,31.7
2022-12-17T17:11:33.884Z,29.8
2022-12-17T17:13:31.341Z,35
2022-12-17T17:15:28.795Z,34.7
2022-12-17T17:17:55.058Z,33.2
2022-12-17T17:21:29.317Z,35.2
2022-12-17T17:25:24.213Z,31.8
2022-12-17T17:29:19.192Z,28.6
2022-12-17T17:31:18.359Z,30.5
2022-12-17T17:33:15.810Z,31.5
2022-12-17T17:35:21.375Z,35.1
2022-12-17T17:37:18.935Z,34.2
2022-12-17T17:40:19.122Z,32.4
2022-12-17T17:44:14.025Z,33.4
2022-12-17T17:46:11.609Z,34.4
2022-12-17T17:50:14.548Z,30.8
2022-12-17T17:52:12.306Z,35.9
2022-12-17T17:54:14.055Z,37.6
2022-12-17T17:56:06.890Z,38.5
2022-12-17T17:58:04.286Z,40.2
2022-12-17T18:00:01.847Z,37.5
2022-12-17T18:02:07.495Z,37.1
2022-12-17T18:04:04.752Z,37
2022-12-17T18:06:02.224Z,40.6
2022-12-17T18:07:59.672Z,31.9
2022-12-17T18:09:57.187Z,34.6
2022-12-17T18:11:54.642Z,32
2022-12-17T18:13:52.101Z,33.6
2022-12-17T18:15:57.583Z,36.9
2022-12-17T18:17:55.070Z,34
2022-12-17T18:19:52.551Z,33
2022-12-17T18:21:50.059Z,40.4
2022-12-17T18:23:47.511Z,35
2022-12-17T18:25:45.026Z,30.4
2022-12-17T18:27:42.670Z,33.9
2022-12-17T18:29:47.992Z,34.3
2022-12-17T18:31:50.120Z,35.3
2022-12-17T18:33:42.874Z,31.9
2022-12-17T18:36:09.853Z,31.9
2022-12-17T18:38:07.354Z,32.7
2022-12-17T18:40:04.795Z,40.4
2022-12-17T18:42:10.115Z,33.2
2022-12-17T18:44:07.632Z,34.7
2022-12-17T18:46:05.151Z,33.2
2022-12-17T18:48:02.605Z,36.5
2022-12-17T18:50:00.148Z,32.7
2022-12-17T18:51:57.550Z,32.6
2022-12-17T18:53:55.021Z,31.5
2022-12-17T18:56:00.329Z,35.8
2022-12-17T18:57:57.759Z,31.6
2022-12-17T18:59:55.309Z,30
2022-12-17T19:01:52.977Z,33
2022-12-17T19:03:50.271Z,29.7
2022-12-17T19:05:52.609Z,31.8
2022-12-17T19:07:45.351Z,33.9
2022-12-17T19:09:50.887Z,33.1
2022-12-17T19:11:48.420Z,28.8
2022-12-17T19:13:45.958Z,29.1
2022-12-17T19:15:43.410Z,33
2022-12-17T19:17:40.939Z,33.1
2022-12-17T19:21:35.898Z,30.5
2022-12-17T19:28:39.415Z,25.3
2022-12-17T19:30:36.412Z,27.4
2022-12-17T19:32:33.818Z,30.4
2022-12-17T19:34:31.367Z,28.1
2022-12-17T19:36:36.696Z,26.2
2022-12-17T19:38:34.225Z,29.2
2022-12-17T19:40:31.748Z,26.9
2022-12-17T19:42:35.211Z,29.8
2022-12-17T19:44:26.812Z,25.5
2022-12-17T19:48:21.776Z,26.9
2022-12-17T19:50:27.087Z,26.8
2022-12-17T19:52:24.507Z,29.8
2022-12-17T19:54:22.020Z,26.3
2022-12-17T19:56:19.457Z,27.6
2022-12-17T19:58:16.857Z,32.4
2022-12-17T20:00:14.261Z,30.6
2022-12-17T20:02:11.974Z,29.8
2022-12-17T20:04:17.287Z,31.7
2022-12-17T20:06:14.766Z,30.4
2022-12-17T20:08:12.281Z,28.8
2022-12-17T20:10:09.801Z,28.2
2022-12-17T20:14:04.701Z,30.8
2022-12-17T20:16:02.080Z,29.8
2022-12-17T20:18:07.392Z,34.3
2022-12-17T20:20:04.838Z,34.2
2022-12-17T20:22:02.355Z,27.9
2022-12-17T20:23:05.144Z,29
2022-12-17T20:25:02.561Z,30.4
2022-12-17T20:26:59.966Z,30.4
2022-12-17T20:33:00.469Z,28.6
2022-12-17T20:34:57.882Z,25
2022-12-17T20:36:55.297Z,31.7
2022-12-17T20:38:52.733Z,26.9
2022-12-17T20:40:50.279Z,32
2022-12-17T20:44:53.567Z,26.1
2022-12-17T20:46:50.587Z,30
2022-12-17T20:48:47.924Z,27.2
2022-12-17T20:50:45.460Z,25.1
2022-12-17T20:52:42.971Z,32.4
2022-12-17T20:54:40.347Z,29.9
2022-12-17T20:58:43.405Z,30.3
2022-12-17T21:00:40.944Z,30.7
2022-12-17T21:02:38.481Z,26.4
2022-12-17T21:08:30.530Z,31.9
2022-12-17T21:12:33.327Z,31.1
2022-12-17T21:14:35.367Z,30.9
2022-12-17T21:16:28.291Z,33.4
2022-12-17T21:17:30.892Z,29.1
2022-12-17T21:21:25.825Z,31.6
2022-12-17T21:23:23.210Z,28.9
2022-12-17T21:25:28.621Z,31.9
2022-12-17T21:27:26.135Z,27.9
2022-12-17T21:29:23.536Z,26.6
2022-12-17T21:31:21.023Z,30
2022-12-17T21:33:18.449Z,29
2022-12-17T21:35:16.002Z,31.3
2022-12-17T21:37:13.389Z,30.3
2022-12-17T21:39:18.900Z,30.9
2022-12-17T21:41:16.398Z,27.8
2022-12-17T21:43:13.895Z,32
2022-12-17T21:45:11.413Z,31.1
2022-12-17T21:49:06.225Z,27.3
2022-12-17T21:51:03.722Z,29
2022-12-17T21:53:09.096Z,34.3
2022-12-17T21:55:06.526Z,29
2022-12-17T21:57:03.923Z,31.6
2022-12-17T21:59:01.436Z,31.6
2022-12-17T22:00:59.021Z,31.2
2022-12-17T22:02:56.447Z,32.1
2022-12-17T22:04:53.840Z,29.9
2022-12-17T22:07:01.159Z,30.4
2022-12-17T22:08:59.193Z,28.6
2022-12-17T22:10:53.982Z,29.8
2022-12-17T22:13:21.097Z,32.8
2022-12-17T22:15:18.501Z,33.6
2022-12-17T22:17:15.883Z,30.2
2022-12-17T22:19:22.522Z,31.7
2022-12-17T22:21:18.813Z,35.4
2022-12-17T22:27:11.221Z,27.3
2022-12-17T22:31:06.239Z,29.5
2022-12-17T22:43:56.313Z,27.9
2022-12-17T22:44:33.645Z,28.2
2022-12-17T22:45:02.080Z,30.1
2022-12-17T22:47:01.534Z,30.7
2022-12-17T22:51:00.634Z,27.5
2022-12-17T22:52:53.833Z,32.3
2022-12-17T22:54:51.328Z,26.6
2022-12-17T22:56:58.348Z,28.6
2022-12-17T22:58:46.237Z,30.7
2022-12-17T23:00:51.691Z,27.8
2022-12-17T23:02:49.260Z,31.9
2022-12-17T23:04:46.559Z,27.1
2022-12-17T23:09:44.115Z,30.2
2022-12-17T23:11:43.154Z,31.4
2022-12-17T23:13:48.577Z,36
2022-12-17T23:15:46.028Z,28.2
2022-12-17T23:17:43.506Z,31.1
2022-12-17T23:19:40.903Z,31.3
2022-12-17T23:23:36.146Z,30.5
2022-12-17T23:25:33.327Z,27
2022-12-17T23:31:33.835Z,29.5
2022-12-17T23:33:31.135Z,26.9
2022-12-17T23:35:28.632Z,31.4
2022-12-17T23:43:26.260Z,32.1
2022-12-17T23:45:23.709Z,31.9
2022-12-17T23:47:21.087Z,30.2
2022-12-17T23:51:16.045Z,32.2
2022-12-17T23:53:13.528Z,32.6
2022-12-17T23:55:19.018Z,31.6
2022-12-17T23:59:13.888Z,27.7
